createdAt,value
2019-05-25T00:04:55.021Z,15.77
2019-05-25T00:09:59.402Z,15.71
2019-05-25T00:15:05.517Z,15.67
2019-05-25T00:20:09.930Z,15.80
2019-05-25T00:25:14.412Z,15.81
2019-05-25T00:30:18.778Z,15.74
2019-05-25T00:35:23.554Z,15.63
2019-05-25T00:40:28.006Z,15.59
2019-05-25T00:45:32.447Z,15.61
2019-05-25T00:50:36.895Z,15.53
2019-05-25T00:55:41.250Z,15.42
2019-05-25T01:00:45.674Z,15.48
2019-05-25T01:05:50.078Z,15.37
2019-05-25T01:10:54.424Z,15.34
2019-05-25T01:15:59.290Z,15.30
2019-05-25T01:21:04.032Z,15.26
2019-05-25T01:26:08.373Z,15.26
2019-05-25T01:31:12.814Z,14.54
2019-05-25T01:36:17.212Z,15.03
2019-05-25T01:41:21.596Z,14.99
2019-05-25T01:46:26.003Z,14.99
2019-05-25T01:51:30.371Z,15.07
2019-05-25T01:56:34.729Z,14.75
2019-05-25T02:01:39.134Z,14.76
2019-05-25T02:06:44.571Z,14.70
2019-05-25T02:11:48.917Z,14.65
2019-05-25T02:16:53.290Z,14.62
2019-05-25T02:21:57.607Z,14.51
2019-05-25T02:27:01.945Z,14.61
2019-05-25T02:32:06.299Z,14.66
2019-05-25T02:37:10.670Z,14.66
2019-05-25T02:42:15.137Z,14.63
2019-05-25T02:47:19.552Z,14.41
2019-05-25T02:52:23.868Z,14.48
2019-05-25T02:57:28.211Z,14.55
2019-05-25T03:02:32.855Z,14.57
2019-05-25T03:07:37.204Z,14.67
2019-05-25T03:12:41.568Z,14.53
2019-05-25T03:17:45.910Z,14.50
2019-05-25T03:22:50.245Z,14.42
2019-05-25T03:27:54.611Z,14.50
2019-05-25T03:32:58.985Z,14.37
2019-05-25T03:38:03.408Z,14.34
2019-05-25T03:43:07.713Z,14.33
2019-05-25T03:48:12.066Z,14.43
2019-05-25T03:53:16.455Z,14.45
2019-05-25T03:58:20.832Z,14.08
2019-05-25T04:03:25.241Z,14.29
2019-05-25T04:08:29.592Z,14.40
2019-05-25T04:13:33.972Z,14.55
2019-05-25T04:18:38.450Z,14.59
2019-05-25T04:23:42.829Z,14.84
2019-05-25T04:28:47.321Z,14.77
2019-05-25T04:33:51.675Z,14.89
2019-05-25T04:38:56.096Z,15.20
2019-05-25T04:44:00.519Z,14.83
2019-05-25T04:49:04.840Z,15.02
2019-05-25T04:54:09.210Z,14.96
2019-05-25T04:59:13.577Z,15.28
2019-05-25T05:04:18.092Z,15.31
2019-05-25T05:09:22.487Z,14.87
2019-05-25T05:14:26.805Z,15.25
2019-05-25T05:19:31.207Z,15.36
2019-05-25T05:24:35.561Z,15.43
2019-05-25T05:29:39.908Z,15.37
2019-05-25T05:34:44.274Z,16.24
2019-05-25T05:39:48.804Z,16.80
2019-05-25T05:44:56.047Z,16.85
2019-05-25T05:50:00.886Z,17.11
2019-05-25T05:55:08.279Z,17.64
2019-05-25T06:00:13.995Z,17.27
2019-05-25T06:05:18.363Z,17.61
2019-05-25T06:10:22.992Z,17.33
2019-05-25T06:15:27.356Z,18.11
2019-05-25T06:20:31.739Z,17.71
2019-05-25T06:25:36.125Z,17.88
2019-05-25T06:30:40.466Z,17.80
2019-05-25T06:35:44.882Z,18.39
2019-05-25T06:40:49.251Z,18.35
2019-05-25T06:45:53.635Z,18.68
2019-05-25T06:50:57.986Z,19.20
2019-05-25T06:56:02.336Z,18.71
2019-05-25T07:01:06.718Z,18.48
2019-05-25T07:06:11.053Z,18.95
2019-05-25T07:11:15.402Z,18.85
2019-05-25T07:16:19.749Z,19.17
2019-05-25T07:21:24.191Z,19.66
2019-05-25T07:26:28.555Z,19.68
2019-05-25T07:31:32.921Z,19.15
2019-05-25T07:36:37.289Z,19.08
2019-05-25T07:41:41.643Z,19.06
2019-05-25T07:46:46.020Z,19.24
2019-05-25T07:51:50.388Z,19.30
2019-05-25T07:56:54.740Z,19.93
2019-05-25T08:01:59.170Z,19.77
2019-05-25T08:07:03.608Z,20.01
2019-05-25T08:12:07.967Z,19.21
2019-05-25T08:17:12.314Z,18.96
2019-05-25T08:22:16.655Z,19.41
2019-05-25T08:27:21.074Z,19.52
2019-05-25T08:32:25.461Z,19.39
2019-05-25T08:37:29.825Z,20.13
2019-05-25T08:42:34.206Z,19.99
2019-05-25T08:47:38.566Z,20.56
2019-05-25T08:52:43.044Z,20.70
2019-05-25T08:57:49.056Z,21.27
2019-05-25T09:02:53.903Z,21.29
2019-05-25T09:08:01.141Z,21.21
2019-05-25T09:13:11.988Z,19.98
2019-05-25T09:18:17.987Z,20.57
2019-05-25T09:23:22.351Z,19.70
2019-05-25T09:28:26.734Z,20.22
2019-05-25T09:33:31.082Z,20.30
2019-05-25T09:38:35.477Z,20.08
2019-05-25T09:43:39.815Z,20.15
2019-05-25T09:48:44.201Z,19.75
2019-05-25T09:53:48.587Z,19.70
2019-05-25T09:58:53.302Z,20.26
2019-05-25T10:03:57.670Z,20.21
2019-05-25T10:09:02.070Z,20.38
2019-05-25T10:14:06.617Z,20.33
2019-05-25T10:19:10.969Z,19.49
2019-05-25T10:24:15.345Z,19.85
2019-05-25T10:29:34.174Z,20.22
2019-05-25T10:34:26.843Z,20.73
2019-05-25T10:39:31.318Z,20.41
2019-05-25T10:44:35.650Z,20.83
2019-05-25T10:49:40.020Z,20.84
2019-05-25T10:54:44.718Z,20.59
2019-05-25T10:59:53.118Z,20.91
2019-05-25T11:04:55.183Z,21.08
2019-05-25T11:09:59.544Z,20.71
2019-05-25T11:15:05.801Z,20.23
2019-05-25T11:20:11.798Z,20.98
2019-05-25T11:25:16.375Z,21.39
2019-05-25T11:30:21.043Z,20.63
2019-05-25T11:35:25.392Z,20.44
2019-05-25T11:40:29.886Z,20.68
2019-05-25T11:45:34.269Z,21.16
2019-05-25T11:50:38.630Z,21.37
2019-05-25T11:55:43.003Z,21.54
2019-05-25T12:00:47.366Z,21.28
2019-05-25T12:05:51.874Z,20.74
2019-05-25T12:10:56.232Z,21.12
2019-05-25T12:16:00.834Z,21.09
2019-05-25T12:21:05.471Z,20.83
2019-05-25T12:26:09.891Z,20.72
2019-05-25T12:31:14.271Z,20.84
2019-05-25T12:36:18.637Z,20.61
2019-05-25T12:41:22.994Z,20.83
2019-05-25T12:46:27.366Z,21.19
2019-05-25T12:51:32.296Z,20.97
2019-05-25T12:56:36.689Z,20.97
2019-05-25T13:01:41.112Z,20.65
2019-05-25T13:06:45.468Z,21.23
2019-05-25T13:11:49.815Z,20.79
2019-05-25T13:16:54.174Z,21.25
2019-05-25T13:21:58.547Z,20.95
2019-05-25T13:27:03.015Z,21.68
2019-05-25T13:32:07.419Z,21.40
2019-05-25T13:37:12.265Z,21.08
2019-05-25T13:42:16.661Z,21.24
2019-05-25T13:47:21.040Z,21.10
2019-05-25T13:52:25.393Z,21.18
2019-05-25T13:57:29.822Z,20.95
2019-05-25T14:02:34.209Z,21.44
2019-05-25T14:07:38.618Z,21.22
2019-05-25T14:12:42.968Z,21.12
2019-05-25T14:17:47.373Z,20.91
2019-05-25T14:22:51.925Z,21.34
2019-05-25T14:27:56.294Z,21.27
2019-05-25T14:33:00.653Z,21.03
2019-05-25T14:38:05.022Z,21.20
2019-05-25T14:43:09.370Z,20.59
2019-05-25T14:48:13.728Z,20.63
2019-05-25T14:53:18.188Z,21.10
2019-05-25T14:58:22.542Z,20.82
2019-05-25T15:03:26.888Z,20.98
2019-05-25T15:08:31.271Z,21.65
2019-05-25T15:13:35.647Z,20.90
2019-05-25T15:18:40.046Z,20.87
2019-05-25T15:23:44.405Z,21.04
2019-05-25T15:28:48.781Z,21.07
2019-05-25T15:33:53.226Z,20.75
2019-05-25T15:38:57.581Z,20.51
2019-05-25T15:44:02.068Z,20.67
2019-05-25T15:49:06.450Z,20.71
2019-05-25T15:54:10.991Z,20.71
2019-05-25T15:59:15.796Z,20.27
2019-05-25T16:04:20.371Z,20.46
2019-05-25T16:09:24.827Z,20.60
2019-05-25T16:14:29.207Z,20.44
2019-05-25T16:19:33.604Z,20.62
2019-05-25T16:24:38.007Z,20.72
2019-05-25T16:29:42.599Z,20.26
2019-05-25T16:34:47.156Z,20.44
2019-05-25T16:39:51.684Z,20.40
2019-05-25T16:44:56.117Z,20.07
2019-05-25T16:50:00.653Z,20.07
2019-05-25T16:55:06.822Z,19.97
2019-05-25T17:00:11.247Z,19.96
2019-05-25T17:05:15.904Z,19.86
2019-05-25T17:10:21.018Z,19.92
2019-05-25T17:15:28.382Z,19.94
2019-05-25T17:20:33.790Z,19.96
2019-05-25T17:25:38.405Z,19.50
2019-05-25T17:30:46.200Z,19.55
2019-05-25T17:35:52.058Z,19.69
2019-05-25T17:41:01.026Z,19.57
2019-05-25T17:46:05.770Z,19.24
2019-05-25T17:51:10.262Z,19.19
2019-05-25T17:56:16.337Z,19.17
2019-05-25T18:01:24.684Z,19.10
2019-05-25T18:06:29.099Z,19.04
2019-05-25T18:11:33.508Z,18.88
2019-05-25T18:16:38.017Z,18.67
2019-05-25T18:21:42.575Z,18.65
2019-05-25T18:26:48.025Z,18.53
2019-05-25T18:31:52.459Z,18.41
2019-05-25T18:36:56.899Z,18.34
2019-05-25T18:42:01.281Z,18.28
2019-05-25T18:47:06.653Z,18.26
2019-05-25T18:52:11.305Z,18.10
2019-05-25T18:57:15.663Z,18.06
2019-05-25T19:02:20.024Z,18.01
2019-05-25T19:07:24.394Z,17.95
2019-05-25T19:12:28.778Z,17.85
2019-05-25T19:17:33.109Z,17.85
2019-05-25T19:22:37.473Z,17.62
2019-05-25T19:27:43.038Z,17.59
2019-05-25T19:32:47.355Z,17.44
2019-05-25T19:37:51.707Z,17.34
2019-05-25T19:42:56.172Z,17.33
2019-05-25T19:48:00.534Z,17.26
2019-05-25T19:53:04.950Z,17.21
2019-05-25T19:58:09.868Z,17.18
2019-05-25T20:03:15.285Z,17.04
2019-05-25T20:08:23.310Z,16.91
2019-05-25T20:13:30.939Z,16.72
2019-05-25T20:18:37.944Z,16.82
2019-05-25T20:23:46.580Z,16.49
2019-05-25T20:29:09.015Z,16.41
2019-05-25T20:34:20.602Z,16.28
2019-05-25T20:39:30.245Z,16.37
2019-05-25T20:44:36.952Z,16.14
2019-05-25T20:49:43.140Z,16.24
2019-05-25T20:54:49.450Z,16.04
2019-05-25T20:59:56.082Z,16.01
2019-05-25T21:05:02.767Z,16.07
2019-05-25T21:10:08.741Z,16.25
2019-05-25T21:15:15.964Z,16.06
2019-05-25T21:20:23.210Z,15.92
2019-05-25T21:25:28.552Z,16.04
2019-05-25T21:30:33.562Z,15.88
2019-05-25T21:35:38.092Z,15.82
2019-05-25T21:40:42.483Z,15.47
2019-05-25T21:45:46.846Z,15.61
2019-05-25T21:50:51.240Z,15.43
2019-05-25T21:55:55.625Z,15.57
2019-05-25T22:01:00.000Z,15.38
2019-05-25T22:06:06.375Z,15.24
2019-05-25T22:11:10.892Z,14.93
2019-05-25T22:16:15.262Z,15.02
2019-05-25T22:21:19.758Z,15.19
2019-05-25T22:26:24.243Z,15.14
2019-05-25T22:31:28.634Z,15.14
2019-05-25T22:36:40.214Z,15.24
2019-05-25T22:41:39.449Z,14.87
2019-05-25T22:46:43.792Z,15.07
2019-05-25T22:51:48.184Z,14.87
2019-05-25T22:56:52.596Z,14.63
2019-05-25T23:01:56.973Z,14.45
2019-05-25T23:07:01.419Z,14.54
2019-05-25T23:12:06.463Z,14.58
2019-05-25T23:17:10.896Z,14.50
2019-05-25T23:22:15.268Z,14.49
2019-05-25T23:27:19.662Z,14.45
2019-05-25T23:32:24.015Z,14.55
2019-05-25T23:37:28.999Z,14.63
2019-05-25T23:42:33.461Z,14.44
2019-05-25T23:47:37.809Z,14.45
2019-05-25T23:52:42.229Z,14.39
2019-05-25T23:57:46.596Z,14.38
